Time;durP1;ratioP1;P1;durP2;ratioP2;P2;SDS_P1;SDS_P2;PMS_P1;PMS_P2;Temp;Humidity;BMP_temperature;BMP_pressure;BME280_temperature;BME280_humidity;BME280_pressure;Samples;Min_cycle;Max_cycle;Signal;HPM_P1;HPM_P2
2021/12/21 00:01:53;;;;;;;0.50;0.50;;;;;;;-0.90;86.95;102981.38;5076894;28;20563;-77
2021/12/21 00:04:18;;;;;;;0.40;0.40;;;;;;;-0.90;86.95;102982.28;5058213;28;20105;-77
2021/12/21 00:06:44;;;;;;;0.50;0.50;;;;;;;-0.91;87.01;102989.84;5067251;28;20033;-77
2021/12/21 00:09:09;;;;;;;0.60;0.60;;;;;;;-0.91;86.64;102985.63;5059498;28;20028;-76
2021/12/21 00:11:35;;;;;;;0.53;0.53;;;;;;;-0.91;87.09;102990.75;5076128;28;20031;-77
2021/12/21 00:14:34;;;;;;;0.30;0.30;;;;;;;-0.92;86.94;103000.88;5074783;28;20029;-76
2021/12/21 00:22:08;;;;;;;0.57;0.57;;;;;;;-0.97;86.92;103003.88;5079549;28;20274;-76
2021/12/21 00:24:44;;;;;;;0.27;0.27;;;;;;;-0.98;87.24;102999.44;5079292;28;20684;-77
2021/12/21 00:27:10;;;;;;;0.50;0.50;;;;;;;-0.98;87.09;102996.88;5058527;28;20720;-77
2021/12/21 00:29:36;;;;;;;1.00;0.90;;;;;;;-1.01;87.07;102991.41;5066176;28;20111;-77
2021/12/21 00:32:01;;;;;;;0.50;0.50;;;;;;;-1.01;87.13;102991.41;5070393;28;20382;-76
2021/12/21 00:34:27;;;;;;;0.77;0.77;;;;;;;-1.03;87.07;102985.19;5071052;28;20043;-76
2021/12/21 00:36:52;;;;;;;0.50;0.50;;;;;;;-1.04;86.99;102982.44;5072519;28;20152;-77
2021/12/21 00:39:18;;;;;;;0.40;0.40;;;;;;;-1.05;87.81;102980.63;5065746;28;20056;-76
2021/12/21 00:41:43;;;;;;;0.40;0.40;;;;;;;-1.04;87.15;102985.00;5067842;28;20017;-76
2021/12/21 00:44:09;;;;;;;0.30;0.30;;;;;;;-1.07;87.17;102977.84;5069540;28;20461;-76
2021/12/21 00:46:35;;;;;;;0.50;0.50;;;;;;;-1.11;87.06;102979.19;5070961;28;20442;-76
2021/12/21 00:49:13;;;;;;;0.50;0.50;;;;;;;-1.15;87.05;102965.81;5079318;28;20063;-77
2021/12/21 00:51:38;;;;;;;0.50;0.50;;;;;;;-1.17;87.39;102968.22;5079607;28;20266;-77
2021/12/21 00:54:03;;;;;;;0.40;0.40;;;;;;;-1.17;87.20;102970.78;5078661;28;20561;-76
2021/12/21 00:56:29;;;;;;;0.40;0.40;;;;;;;-1.18;87.35;102970.63;5048719;28;20124;-77
2021/12/21 00:58:55;;;;;;;0.40;0.40;;;;;;;-1.18;87.42;102962.91;5074451;28;20336;-77
2021/12/21 01:01:20;;;;;;;0.50;0.50;;;;;;;-1.19;87.36;102969.72;5044025;28;20063;-76
2021/12/21 01:03:50;;;;;;;0.60;0.60;;;;;;;-1.20;87.46;102967.88;5078441;28;20054;-77
2021/12/21 01:11:33;;;;;;;0.40;0.40;;;;;;;-1.30;87.28;102955.66;5058036;28;20542;-77
2021/12/21 01:16:39;;;;;;;0.37;0.37;;;;;;;-1.32;87.52;102951.13;5071776;28;20298;-77
2021/12/21 01:19:29;;;;;;;0.40;0.40;;;;;;;-1.36;87.55;102955.00;5061910;28;20699;-76
2021/12/21 01:27:27;;;;;;;0.40;0.40;;;;;;;-1.40;87.69;102951.19;5061548;28;20305;-77
2021/12/21 01:51:08;;;;;;;0.40;0.40;;;;;;;-1.52;87.72;102947.25;5059689;28;20655;-76
2021/12/21 01:53:34;;;;;;;0.30;0.30;;;;;;;-1.54;87.89;102941.91;5060766;28;20597;-76
2021/12/21 01:56:02;;;;;;;0.40;0.40;;;;;;;-1.58;87.78;102938.84;5074970;28;20539;-77
2021/12/21 01:58:27;;;;;;;0.30;0.30;;;;;;;-1.59;87.81;102931.88;5077206;28;20282;-77
2021/12/21 02:00:53;;;;;;;0.30;0.30;;;;;;;-1.60;87.92;102938.69;5077429;28;20289;-77
2021/12/21 02:03:18;;;;;;;0.40;0.40;;;;;;;-1.62;87.91;102944.41;5077901;28;20064;-77
2021/12/21 02:05:44;;;;;;;0.40;0.40;;;;;;;-1.64;87.62;102936.50;5092940;28;20659;-75
2021/12/21 02:08:09;;;;;;;0.43;0.43;;;;;;;-1.65;88.02;102937.25;5077970;28;20036;-77
2021/12/21 02:10:35;;;;;;;0.50;0.50;;;;;;;-1.67;87.80;102931.94;5077452;28;20058;-76
2021/12/21 02:13:01;;;;;;;0.40;0.40;;;;;;;-1.68;88.06;102926.66;5077818;28;20039;-77
2021/12/21 02:15:27;;;;;;;0.50;0.50;;;;;;;-1.68;88.05;102929.22;5076194;28;20410;-76
2021/12/21 02:23:18;;;;;;;0.47;0.47;;;;;;;-1.73;88.19;102931.28;5061696;28;20669;-76
2021/12/21 02:26:03;;;;;;;0.30;0.30;;;;;;;-1.76;88.06;102924.88;5062411;28;20028;-77
2021/12/21 02:28:47;;;;;;;0.30;0.30;;;;;;;-1.81;87.87;102920.13;5056701;28;20033;-77
2021/12/21 02:31:16;;;;;;;0.60;0.60;;;;;;;-1.81;88.17;102921.78;5042913;28;20486;-76
2021/12/21 02:33:42;;;;;;;0.30;0.30;;;;;;;-1.82;88.17;102919.94;5057114;28;20275;-75
2021/12/21 02:36:07;;;;;;;0.40;0.40;;;;;;;-1.87;87.67;102922.00;5060041;28;20286;-76
2021/12/21 02:38:32;;;;;;;0.50;0.50;;;;;;;-1.87;87.95;102926.25;5077210;28;20024;-76
2021/12/21 02:40:58;;;;;;;0.50;0.50;;;;;;;-1.88;88.08;102930.44;5077428;28;20020;-77
2021/12/21 02:43:23;;;;;;;0.50;0.50;;;;;;;-1.89;88.12;102925.13;5076935;28;20454;-77
2021/12/21 02:45:49;;;;;;;0.40;0.40;;;;;;;-1.91;87.73;102926.63;5076796;28;20035;-77
2021/12/21 02:48:14;;;;;;;0.40;0.40;;;;;;;-1.93;88.39;102931.59;5076128;28;20032;-77
2021/12/21 02:50:41;;;;;;;0.57;0.57;;;;;;;-1.92;88.35;102930.88;5042660;28;20291;-76
2021/12/21 02:53:08;;;;;;;0.60;0.60;;;;;;;-1.94;88.43;102925.53;5077136;28;20225;-76
2021/12/21 02:55:33;;;;;;;0.40;0.40;;;;;;;-1.95;88.20;102931.44;5076824;28;20283;-77
2021/12/21 02:57:59;;;;;;;0.40;0.40;;;;;;;-1.97;88.57;102922.66;5076923;28;20267;-76
2021/12/21 03:00:25;;;;;;;0.50;0.50;;;;;;;-1.97;88.47;102930.34;5075757;28;20051;-76
2021/12/21 03:02:52;;;;;;;0.50;0.50;;;;;;;-1.98;88.36;102932.72;5076911;28;20039;-77
2021/12/21 03:05:17;;;;;;;0.30;0.30;;;;;;;-1.99;88.55;102931.81;5076833;28;20293;-76
2021/12/21 03:10:16;;;;;;;0.40;0.40;;;;;;;-2.05;88.24;102932.78;5075944;28;20119;-76
2021/12/21 03:15:27;;;;;;;0.60;0.60;;;;;;;-2.08;88.51;102930.78;5061737;28;20301;-76
2021/12/21 03:17:54;;;;;;;0.50;0.50;;;;;;;-2.09;88.68;102928.94;5077198;28;20277;-75
2021/12/21 03:20:20;;;;;;;0.47;0.47;;;;;;;-2.09;88.57;102928.94;5042912;28;20282;-77
2021/12/21 03:22:46;;;;;;;0.37;0.37;;;;;;;-2.11;88.47;102926.19;5077027;28;20274;-75
2021/12/21 03:25:12;;;;;;;0.40;0.40;;;;;;;-2.13;88.29;102925.13;5076092;28;20727;-76
2021/12/21 03:27:37;;;;;;;0.60;0.60;;;;;;;-2.12;88.80;102926.94;5042775;28;20510;-76
2021/12/21 03:30:06;;;;;;;0.43;0.43;;;;;;;-2.11;88.64;102922.72;5076647;28;20032;-76
2021/12/21 03:32:32;;;;;;;0.50;0.50;;;;;;;-2.16;88.48;102926.41;5076566;28;20028;-75
2021/12/21 03:34:57;;;;;;;0.50;0.50;;;;;;;-2.18;88.46;102922.78;5059561;28;20591;-77
2021/12/21 03:37:22;;;;;;;0.50;0.50;;;;;;;-2.19;88.40;102919.28;5059805;28;20406;-77
2021/12/21 03:39:50;;;;;;;0.40;0.40;;;;;;;-2.20;88.68;102914.88;5059269;28;20031;-76
2021/12/21 03:42:16;;;;;;;0.50;0.50;;;;;;;-2.24;88.50;102918.75;5075747;28;20090;-77
2021/12/21 03:44:42;;;;;;;0.40;0.40;;;;;;;-2.25;88.48;102913.47;5075685;28;20290;-76
2021/12/21 03:47:10;;;;;;;0.50;0.50;;;;;;;-2.25;88.69;102908.34;5076619;28;20150;-76
2021/12/21 03:52:17;;;;;;;0.40;0.40;;;;;;;-2.22;88.88;102916.38;5077798;28;20332;-76
2021/12/21 03:54:54;;;;;;;0.50;0.50;;;;;;;-2.27;88.62;102913.28;5057846;28;20302;-76
2021/12/21 03:57:20;;;;;;;0.50;0.50;;;;;;;-2.28;88.69;102913.09;5076702;28;20549;-76
2021/12/21 03:59:48;;;;;;;0.50;0.50;;;;;;;-2.29;88.73;102908.72;5075734;28;20289;-75
2021/12/21 04:02:13;;;;;;;0.50;0.50;;;;;;;-2.32;88.80;102901.56;5059056;28;20044;-76
2021/12/21 04:04:39;;;;;;;0.40;0.40;;;;;;;-2.31;88.76;102908.53;5058584;28;20279;-76
2021/12/21 04:07:05;;;;;;;0.67;0.67;;;;;;;-2.32;88.95;102901.56;5071998;28;20036;-76
2021/12/21 04:09:31;;;;;;;0.40;0.40;;;;;;;-2.33;88.64;102903.97;5042257;28;20282;-75
2021/12/21 04:11:56;;;;;;;0.30;0.30;;;;;;;-2.35;88.67;102893.53;5077676;28;20032;-76
2021/12/21 04:14:22;;;;;;;0.40;0.40;;;;;;;-2.37;88.34;102890.78;5076417;28;20051;-75
2021/12/21 04:16:48;;;;;;;0.40;0.40;;;;;;;-2.38;88.86;102894.09;5075836;28;20033;-75
2021/12/21 04:19:14;;;;;;;0.40;0.40;;;;;;;-2.37;88.92;102893.34;5076587;28;20027;-74
2021/12/21 04:21:40;;;;;;;0.50;0.50;;;;;;;-2.38;88.77;102881.25;5076499;28;20287;-75
2021/12/21 04:24:06;;;;;;;0.40;0.40;;;;;;;-2.42;88.75;102879.06;5076852;28;20024;-75
2021/12/21 04:26:31;;;;;;;0.40;0.40;;;;;;;-2.41;88.70;102880.94;5042851;28;20287;-75
2021/12/21 04:28:56;;;;;;;0.40;0.40;;;;;;;-2.42;88.77;102873.06;5075911;28;20024;-76
2021/12/21 04:31:22;;;;;;;0.50;0.50;;;;;;;-2.44;88.64;102878.00;5075730;28;20394;-75
2021/12/21 04:33:47;;;;;;;0.50;0.50;;;;;;;-2.45;89.04;102889.00;5075413;28;20058;-76
2021/12/21 04:36:13;;;;;;;0.50;0.50;;;;;;;-2.45;88.95;102885.53;5075879;28;20028;-77
2021/12/21 04:38:42;;;;;;;0.40;0.40;;;;;;;-2.45;88.96;102891.56;5058278;28;20029;-75
2021/12/21 04:41:15;;;;;;;0.40;0.40;;;;;;;-2.47;88.91;102889.56;5041805;28;20314;-76
2021/12/21 04:43:41;;;;;;;0.40;0.40;;;;;;;-2.48;89.02;102886.09;5058149;28;20282;-75
2021/12/21 04:46:07;;;;;;;0.40;0.40;;;;;;;-2.51;88.78;102891.78;5075358;28;20383;-73
2021/12/21 04:48:32;;;;;;;0.50;0.50;;;;;;;-2.53;88.85;102888.16;5075370;28;20357;-75
2021/12/21 04:50:58;;;;;;;0.40;0.40;;;;;;;-2.55;88.85;102892.16;5075349;28;20082;-75
2021/12/21 04:53:24;;;;;;;0.50;0.50;;;;;;;-2.54;88.80;102877.69;5075676;28;20039;-75
2021/12/21 04:55:50;;;;;;;0.40;0.40;;;;;;;-2.53;89.03;102884.66;5075307;28;20040;-75
2021/12/21 04:58:15;;;;;;;0.50;0.50;;;;;;;-2.53;88.93;102884.66;5075858;28;20047;-74
2021/12/21 05:00:41;;;;;;;0.40;0.40;;;;;;;-2.53;88.90;102882.09;5074648;28;20028;-73
2021/12/21 05:03:06;;;;;;;0.30;0.30;;;;;;;-2.55;88.94;102873.31;5075639;28;20029;-73
2021/12/21 05:05:32;;;;;;;0.43;0.43;;;;;;;-2.55;89.07;102878.44;5076012;28;20112;-73
2021/12/21 05:08:09;;;;;;;0.57;0.57;;;;;;;-2.55;88.95;102883.56;5078580;28;20306;-73
2021/12/21 05:10:47;;;;;;;0.47;0.47;;;;;;;-2.58;89.01;102888.31;5062536;28;20032;-73
2021/12/21 05:13:14;;;;;;;0.50;0.50;;;;;;;-2.59;88.76;102876.25;5062070;28;20323;-73
2021/12/21 05:15:39;;;;;;;0.43;0.43;;;;;;;-2.60;89.04;102874.41;5078043;28;20349;-72
2021/12/21 05:18:05;;;;;;;0.40;0.40;;;;;;;-2.59;89.03;102881.38;5077998;28;20420;-73
2021/12/21 05:20:30;;;;;;;0.40;0.40;;;;;;;-2.58;88.90;102875.50;5077900;28;20290;-72
2021/12/21 05:22:56;;;;;;;0.50;0.50;;;;;;;-2.62;88.96;102874.22;5078442;28;20303;-72
2021/12/21 05:25:21;;;;;;;0.53;0.53;;;;;;;-2.66;88.80;102878.13;5078597;28;20032;-73
2021/12/21 05:27:46;;;;;;;0.40;0.40;;;;;;;-2.66;88.56;102874.63;5060870;28;20048;-72
2021/12/21 05:30:12;;;;;;;0.50;0.50;;;;;;;-2.67;88.89;102881.41;5078019;28;20032;-72
2021/12/21 05:32:38;;;;;;;0.50;0.50;;;;;;;-2.65;88.93;102873.91;5060817;28;20032;-71
2021/12/21 05:35:05;;;;;;;0.40;0.40;;;;;;;-2.65;89.01;102879.97;5078561;28;20645;-73
2021/12/21 05:37:31;;;;;;;0.30;0.30;;;;;;;-2.65;88.81;102872.25;5060734;28;20025;-71
2021/12/21 05:40:08;;;;;;;0.60;0.60;;;;;;;-2.64;88.73;102878.28;5044207;28;20374;-73
2021/12/21 05:42:34;;;;;;;0.33;0.33;;;;;;;-2.67;88.87;102877.94;5077506;28;20305;-72
2021/12/21 05:45:00;;;;;;;0.40;0.40;;;;;;;-2.69;89.08;102875.19;5077679;28;20565;-72
2021/12/21 05:47:25;;;;;;;0.40;0.40;;;;;;;-2.67;88.87;102875.38;5077931;28;20036;-71
2021/12/21 05:49:50;;;;;;;0.27;0.27;;;;;;;-2.69;88.82;102880.31;5077919;28;20366;-70
2021/12/21 05:52:15;;;;;;;0.47;0.47;;;;;;;-2.69;88.91;102879.44;5078206;28;20325;-72
2021/12/21 05:54:41;;;;;;;0.40;0.40;;;;;;;-2.70;88.94;102877.56;5078088;28;20067;-71
2021/12/21 05:57:07;;;;;;;0.50;0.50;;;;;;;-2.73;89.07;102873.03;5078339;28;20025;-71
2021/12/21 05:59:32;;;;;;;0.50;0.50;;;;;;;-2.72;89.07;102876.50;5076786;28;20039;-71
2021/12/21 06:01:57;;;;;;;0.40;0.40;;;;;;;-2.74;88.77;102880.53;5077977;28;20029;-71
2021/12/21 06:04:24;;;;;;;0.50;0.50;;;;;;;-2.74;88.82;102888.25;5077737;28;20024;-71
2021/12/21 06:06:49;;;;;;;0.60;0.60;;;;;;;-2.77;88.90;102892.28;5077829;28;20116;-71
2021/12/21 06:09:16;;;;;;;0.50;0.50;;;;;;;-2.76;88.89;102890.63;5077740;28;20354;-71
2021/12/21 06:11:49;;;;;;;0.60;0.60;;;;;;;-2.77;89.04;102892.28;5077338;28;20028;-71
2021/12/21 06:27:10;;;;;;;0.50;0.50;;;;;;;-2.82;88.89;102878.00;5075260;28;20386;-70
2021/12/21 06:29:36;;;;;;;0.50;0.50;;;;;;;-2.84;88.90;102883.69;5076960;28;20370;-71
2021/12/21 06:32:02;;;;;;;0.50;0.50;;;;;;;-2.84;88.60;102888.81;5077378;28;20591;-71
2021/12/21 06:34:28;;;;;;;0.50;0.50;;;;;;;-2.88;88.77;102884.09;5059467;28;20028;-70
2021/12/21 06:36:54;;;;;;;0.80;0.80;;;;;;;-2.93;88.60;102884.44;5076557;28;20270;-71
2021/12/21 06:39:19;;;;;;;0.43;0.43;;;;;;;-2.92;88.35;102882.81;5075843;28;20134;-69
2021/12/21 06:41:45;;;;;;;0.40;0.40;;;;;;;-2.94;88.76;102880.06;5076599;28;20099;-71
2021/12/21 06:44:13;;;;;;;0.50;0.50;;;;;;;-2.95;88.74;102885.00;5076249;28;20031;-70
2021/12/21 06:46:53;;;;;;;0.57;0.57;;;;;;;-2.97;88.74;102884.84;5059269;28;20036;-70
2021/12/21 06:52:03;;;;;;;0.53;0.53;;;;;;;-2.99;89.34;102887.97;5076725;28;20313;-70
2021/12/21 06:54:29;;;;;;;0.47;0.47;;;;;;;-2.99;88.89;102890.53;5076733;28;20743;-70
2021/12/21 06:56:54;;;;;;;0.57;0.57;;;;;;;-2.98;88.94;102884.66;5076258;28;20390;-71
2021/12/21 06:59:20;;;;;;;0.47;0.47;;;;;;;-2.98;89.14;102882.09;5059071;28;20118;-70
2021/12/21 07:01:48;;;;;;;0.50;0.50;;;;;;;-3.00;88.98;102881.03;5059083;28;20107;-70
2021/12/21 07:04:14;;;;;;;0.40;0.40;;;;;;;-3.01;88.77;102886.88;5076530;28;20074;-71
2021/12/21 07:06:40;;;;;;;0.50;0.50;;;;;;;-3.00;89.11;102879.34;5076493;28;20375;-70
2021/12/21 07:09:21;;;;;;;0.47;0.47;;;;;;;-2.98;88.97;102872.78;5073044;28;20381;-70
2021/12/21 07:12:09;;;;;;;0.40;0.40;;;;;;;-2.96;88.89;102890.88;5061931;28;20267;-70
2021/12/21 07:20:00;;;;;;;0.50;0.50;;;;;;;-2.94;89.30;102891.97;5068753;28;20324;-70
2021/12/21 07:22:26;;;;;;;0.40;0.40;;;;;;;-2.94;88.85;102889.41;5068998;28;20266;-69
2021/12/21 07:24:51;;;;;;;0.60;0.60;;;;;;;-2.94;88.94;102890.31;5067588;28;20163;-71
2021/12/21 07:27:16;;;;;;;0.47;0.47;;;;;;;-2.92;89.21;102898.22;5056130;28;20032;-71
2021/12/21 07:29:42;;;;;;;0.33;0.33;;;;;;;-2.86;89.36;102895.44;5065941;28;20020;-71
2021/12/21 07:32:07;;;;;;;0.40;0.40;;;;;;;-2.83;89.20;102891.56;5076438;28;20094;-70
2021/12/21 07:34:32;;;;;;;0.40;0.40;;;;;;;-2.82;89.29;102897.59;5075680;28;20021;-70
2021/12/21 07:36:58;;;;;;;0.43;0.43;;;;;;;-2.84;88.99;102900.00;5075675;28;20025;-71
2021/12/21 07:39:23;;;;;;;0.40;0.40;;;;;;;-2.85;88.97;102892.13;5076176;28;20024;-72
2021/12/21 07:41:49;;;;;;;0.47;0.47;;;;;;;-2.86;88.83;102892.88;5065133;28;20303;-71
2021/12/21 07:44:14;;;;;;;0.50;0.50;;;;;;;-2.89;88.61;102885.72;5038282;28;20071;-71
2021/12/21 07:46:41;;;;;;;0.50;0.50;;;;;;;-2.92;88.85;102880.25;5054679;28;20037;-70
2021/12/21 07:49:08;;;;;;;0.30;0.30;;;;;;;-2.89;88.91;102885.72;5056251;28;20137;-71
2021/12/21 07:51:34;;;;;;;0.50;0.50;;;;;;;-2.88;89.02;102890.13;5065681;28;20344;-71
2021/12/21 07:53:59;;;;;;;0.50;0.50;;;;;;;-2.89;88.84;102885.72;5055695;28;20337;-70
2021/12/21 07:56:25;;;;;;;0.40;0.40;;;;;;;-2.86;88.95;102898.88;5055775;28;20029;-70
2021/12/21 07:58:50;;;;;;;0.50;0.50;;;;;;;-2.84;88.97;102897.44;5059657;28;20119;-71
2021/12/21 08:01:16;;;;;;;0.30;0.30;;;;;;;-2.84;88.79;102899.06;5057950;28;20047;-71
2021/12/21 08:03:41;;;;;;;0.47;0.47;;;;;;;-2.86;88.68;102905.69;5075194;28;20072;-71
2021/12/21 08:06:08;;;;;;;0.50;0.50;;;;;;;-2.86;88.75;102903.13;5075731;28;20437;-70
2021/12/21 08:08:36;;;;;;;0.50;0.50;;;;;;;-2.88;88.60;102909.72;5075510;28;20294;-71
2021/12/21 08:13:49;;;;;;;0.50;0.50;;;;;;;-2.91;88.50;102910.28;5024375;28;20307;-72
2021/12/21 08:16:14;;;;;;;0.37;0.37;;;;;;;-2.92;88.52;102917.03;5056050;28;20275;-69
2021/12/21 08:18:40;;;;;;;0.50;0.50;;;;;;;-2.91;88.63;102920.53;5055271;28;20291;-70
2021/12/21 08:21:06;;;;;;;0.40;0.40;;;;;;;-2.90;88.66;102924.94;5063780;28;20029;-71
2021/12/21 08:23:31;;;;;;;3.50;2.30;;;;;;;-2.85;88.75;102928.97;5075032;28;20064;-70
2021/12/21 08:25:56;;;;;;;0.40;0.40;;;;;;;-2.84;88.74;102932.41;5075594;28;20032;-69
2021/12/21 08:28:23;;;;;;;0.40;0.40;;;;;;;-2.80;88.67;102943.22;5075518;28;20034;-70
2021/12/21 08:30:49;;;;;;;0.80;0.80;;;;;;;-2.75;88.71;102943.75;5074971;28;20111;-70
2021/12/21 08:33:14;;;;;;;0.47;0.47;;;;;;;-2.71;88.18;102934.75;5075585;28;20649;-71
2021/12/21 08:35:40;;;;;;;0.40;0.40;;;;;;;-2.67;88.54;102944.66;5075655;28;20032;-70
2021/12/21 08:38:09;;;;;;;0.50;0.50;;;;;;;-2.65;88.10;102943.16;5074994;28;20341;-70
2021/12/21 08:40:40;;;;;;;0.47;0.47;;;;;;;-2.62;88.00;102936.72;5078344;28;20031;-71
2021/12/21 08:43:07;;;;;;;0.53;0.53;;;;;;;-2.58;87.83;102935.44;5060495;28;20271;-70
2021/12/21 08:45:33;;;;;;;0.50;0.50;;;;;;;-2.52;87.91;102943.84;5058544;28;20279;-70
2021/12/21 08:47:59;;;;;;;0.50;0.50;;;;;;;-2.46;87.57;102935.00;5059461;28;20366;-71
2021/12/21 08:50:25;;;;;;;0.60;0.60;;;;;;;-2.42;87.65;102927.84;5058662;28;20306;-70
2021/12/21 08:52:51;;;;;;;0.60;0.60;;;;;;;-2.37;87.48;102928.41;5025434;28;20291;-71
2021/12/21 08:55:18;;;;;;;0.43;0.43;;;;;;;-2.31;87.23;102920.47;5061788;28;20352;-70
2021/12/21 08:57:43;;;;;;;0.40;0.40;;;;;;;-2.25;87.31;102921.19;5072620;28;20033;-70
2021/12/21 09:00:09;;;;;;;0.50;0.50;;;;;;;-2.19;87.12;102923.53;5046855;28;20669;-72
2021/12/21 09:02:37;;;;;;;0.40;0.40;;;;;;;-2.12;86.90;102920.91;5079237;28;20052;-70
2021/12/21 09:05:12;;;;;;;0.70;0.70;;;;;;;-2.03;86.76;102918.44;5070883;28;20017;-70
2021/12/21 09:07:38;;;;;;;0.67;0.67;;;;;;;-1.93;86.32;102916.19;5069374;28;20307;-70
2021/12/21 09:10:06;;;;;;;0.43;0.43;;;;;;;-1.83;86.24;102919.03;5061691;28;20329;-70
2021/12/21 09:12:31;;;;;;;0.60;0.60;;;;;;;-1.76;86.30;102920.63;5071223;28;20283;-70
2021/12/21 09:14:56;;;;;;;0.60;0.60;;;;;;;-1.69;85.80;102919.66;5065677;28;20267;-70
2021/12/21 09:17:22;;;;;;;0.53;0.53;;;;;;;-1.61;85.56;102925.66;5048297;28;20382;-71
2021/12/21 09:19:47;;;;;;;0.50;0.50;;;;;;;-1.55;85.02;102927.25;5078873;28;20052;-71
2021/12/21 09:22:13;;;;;;;0.50;0.50;;;;;;;-1.49;85.09;102926.09;5074600;28;20028;-70
2021/12/21 09:24:39;;;;;;;0.43;0.43;;;;;;;-1.44;84.86;102918.16;5067944;28;20021;-70
2021/12/21 09:27:04;;;;;;;0.50;0.50;;;;;;;-1.39;84.68;102922.16;5066571;28;20120;-72
2021/12/21 09:29:30;;;;;;;0.50;0.50;;;;;;;-1.32;84.76;102920.28;5051473;28;20104;-71
2021/12/21 09:31:56;;;;;;;0.40;0.40;;;;;;;-1.27;84.39;102922.59;5066737;28;20059;-74
2021/12/21 09:34:21;;;;;;;0.60;0.60;;;;;;;-1.20;84.49;102916.47;5071019;28;20024;-71
2021/12/21 09:36:47;;;;;;;1.43;1.43;;;;;;;-1.12;84.34;102913.06;5064298;28;20029;-73
2021/12/21 09:39:13;;;;;;;0.50;0.50;;;;;;;-1.06;84.20;102912.81;5051664;28;20021;-70
2021/12/21 09:41:39;;;;;;;0.50;0.50;;;;;;;-1.00;83.71;102895.47;5068899;28;20602;-69
2021/12/21 09:44:05;;;;;;;0.40;0.40;;;;;;;-0.92;83.61;102906.63;5051029;28;20412;-72
2021/12/21 09:46:31;;;;;;;0.30;0.30;;;;;;;-0.82;83.72;102915.31;5069069;28;20291;-71
2021/12/21 09:48:57;;;;;;;0.40;0.40;;;;;;;-0.76;83.28;102914.31;5067268;28;20309;-71
2021/12/21 09:51:22;;;;;;;0.40;0.40;;;;;;;-0.65;83.02;102911.97;5050796;28;20024;-72
2021/12/21 09:53:50;;;;;;;0.50;0.50;;;;;;;-0.57;82.63;102918.84;5049400;28;20295;-71
2021/12/21 09:56:18;;;;;;;0.40;0.40;;;;;;;-0.50;82.22;102911.03;5067405;28;20027;-71
2021/12/21 09:58:44;;;;;;;0.53;0.53;;;;;;;-0.44;81.87;102906.56;5048592;28;20271;-71
2021/12/21 10:01:10;;;;;;;0.40;0.40;;;;;;;-0.33;81.91;102917.06;5033642;28;20310;-71
2021/12/21 10:03:35;;;;;;;0.50;0.50;;;;;;;-0.23;81.93;102918.97;5066097;28;20318;-71
2021/12/21 10:06:06;;;;;;;0.80;0.80;;;;;;;-0.12;81.11;102925.25;5066619;28;20025;-72
2021/12/21 10:08:32;;;;;;;0.40;0.40;;;;;;;-0.02;80.24;102922.88;5065432;28;20017;-72
2021/12/21 10:10:58;;;;;;;0.50;0.50;;;;;;;0.10;80.23;102920.66;5066781;28;20301;-74
2021/12/21 10:13:25;;;;;;;0.40;0.40;;;;;;;0.21;79.96;102925.28;5064137;28;20665;-72
2021/12/21 10:16:03;;;;;;;0.43;0.43;;;;;;;0.31;80.28;102919.41;5058594;28;20021;-72
2021/12/21 10:18:32;;;;;;;0.70;0.70;;;;;;;0.39;78.84;102912.47;5058276;28;20314;-72
2021/12/21 10:20:59;;;;;;;0.60;0.60;;;;;;;0.48;78.31;102922.81;5041566;28;20272;-72
2021/12/21 10:23:28;;;;;;;0.40;0.40;;;;;;;0.60;78.16;102910.25;5061763;28;20298;-73
2021/12/21 10:25:57;;;;;;;0.47;0.47;;;;;;;0.70;78.49;102900.16;5068561;28;20274;-75
2021/12/21 10:28:35;;;;;;;0.40;0.40;;;;;;;0.81;77.61;102898.66;5078116;28;20514;-74
2021/12/21 10:31:04;;;;;;;0.40;0.40;;;;;;;0.88;76.62;102901.06;5078071;28;20326;-73
2021/12/21 10:33:31;;;;;;;0.40;0.40;;;;;;;0.96;77.04;102895.03;5077138;28;20293;-76
2021/12/21 10:35:58;;;;;;;0.40;0.40;;;;;;;1.08;77.22;102882.44;5078459;28;20285;-75
2021/12/21 10:38:29;;;;;;;0.50;0.50;;;;;;;1.31;76.72;102876.06;5078204;28;20691;-74
2021/12/21 10:40:58;;;;;;;0.40;0.40;;;;;;;1.51;75.87;102871.97;5060665;28;20291;-76
2021/12/21 10:43:27;;;;;;;0.40;0.40;;;;;;;1.73;74.01;102867.22;5076203;28;20278;-76
2021/12/21 10:45:53;;;;;;;0.40;0.40;;;;;;;1.93;73.00;102868.22;5059345;28;20699;-76
2021/12/21 10:48:20;;;;;;;0.40;0.40;;;;;;;2.02;72.25;102868.19;5077971;28;20728;-76
2021/12/21 10:50:48;;;;;;;0.50;0.50;;;;;;;2.10;72.06;102868.94;5060544;28;20548;-76
2021/12/21 10:53:23;;;;;;;0.40;0.40;;;;;;;2.22;71.01;102859.75;5077553;28;20310;-76
2021/12/21 10:56:00;;;;;;;0.95;0.95;;;;;;;2.23;69.55;102871.03;5043671;28;20290;-76
2021/12/21 10:58:27;;;;;;;0.40;0.40;;;;;;;2.40;68.81;102867.44;5077767;28;20040;-75
2021/12/21 11:01:00;;;;;;;0.50;0.50;;;;;;;2.54;69.20;102868.75;5069390;28;20025;-76
2021/12/21 11:03:44;;;;;;;0.40;0.40;;;;;;;2.56;67.87;102873.28;5039487;28;20301;-75
2021/12/21 11:06:14;;;;;;;0.40;0.40;;;;;;;2.55;68.40;102873.16;5058267;28;20354;-77
2021/12/21 11:08:42;;;;;;;0.40;0.40;;;;;;;2.54;67.52;102858.41;5075055;28;20305;-75
2021/12/21 11:11:20;;;;;;;0.60;0.60;;;;;;;2.52;67.93;102859.91;5077219;28;20286;-76
2021/12/21 11:13:46;;;;;;;0.40;0.40;;;;;;;2.52;68.76;102860.84;5060147;28;20862;-76
2021/12/21 11:16:13;;;;;;;0.50;0.50;;;;;;;2.51;68.06;102861.59;5060517;28;20365;-75
2021/12/21 11:18:40;;;;;;;0.70;0.70;;;;;;;2.46;67.97;102853.41;5077211;28;20099;-76
2021/12/21 11:21:09;;;;;;;0.40;0.40;;;;;;;2.37;69.59;102849.06;5060423;28;20279;-76
2021/12/21 11:23:35;;;;;;;0.40;0.40;;;;;;;2.27;69.80;102844.69;5077126;28;20537;-76
2021/12/21 11:26:03;;;;;;;0.30;0.30;;;;;;;2.17;70.08;102848.06;5059578;28;20282;-76
2021/12/21 11:28:36;;;;;;;0.40;0.40;;;;;;;2.08;70.48;102850.69;5070628;28;20028;-76
2021/12/21 11:31:02;;;;;;;0.40;0.40;;;;;;;2.00;70.96;102842.19;5041168;28;20271;-79
2021/12/21 11:33:34;;;;;;;2.20;2.10;;;;;;;1.92;70.14;102853.47;5076154;28;20279;-75
2021/12/21 11:38:43;;;;;;;0.43;0.43;;;;;;;1.94;69.98;102846.81;5062477;28;20662;-75
2021/12/21 11:41:09;;;;;;;0.57;0.57;;;;;;;1.94;69.71;102831.31;5077879;28;20314;-75
2021/12/21 11:43:41;;;;;;;0.30;0.30;;;;;;;2.07;69.11;102828.22;5058915;28;20068;-76
2021/12/21 11:46:11;;;;;;;0.60;0.60;;;;;;;2.27;68.74;102822.34;5077372;28;20040;-76
2021/12/21 11:48:49;;;;;;;0.47;0.47;;;;;;;2.48;68.39;102809.56;5059759;28;20740;-76
2021/12/21 11:51:15;;;;;;;0.40;0.40;;;;;;;2.66;67.40;102804.31;5043320;28;20643;-76
2021/12/21 11:53:41;;;;;;;0.40;0.40;;;;;;;2.83;66.88;102818.78;5059890;28;20289;-75
2021/12/21 11:56:19;;;;;;;0.50;0.50;;;;;;;2.92;64.22;102813.53;5060572;28;20553;-76
2021/12/21 11:58:44;;;;;;;0.50;0.50;;;;;;;2.89;66.13;102827.09;5059409;28;20329;-76
2021/12/21 12:01:12;;;;;;;0.47;0.47;;;;;;;2.91;65.61;102832.44;5076814;28;20306;-76
2021/12/21 12:03:39;;;;;;;0.40;0.40;;;;;;;3.01;65.01;102820.44;5055788;28;20039;-77
2021/12/21 12:06:06;;;;;;;0.60;0.60;;;;;;;3.12;65.24;102817.94;5049661;28;20274;-75
2021/12/21 12:08:55;;;;;;;0.30;0.30;;;;;;;3.14;64.07;102811.22;5059917;28;20313;-76
2021/12/21 12:11:26;;;;;;;0.30;0.30;;;;;;;3.21;64.58;102813.59;5041142;28;20310;-77
2021/12/21 12:14:03;;;;;;;0.40;0.40;;;;;;;3.20;62.52;102814.38;5053253;28;20310;-77
2021/12/21 12:16:49;;;;;;;0.40;0.40;;;;;;;3.25;62.45;102807.91;5078481;28;20324;-77
2021/12/21 12:19:16;;;;;;;0.50;0.50;;;;;;;3.33;64.07;102799.91;5073557;28;20373;-77
2021/12/21 12:21:56;;;;;;;0.40;0.40;;;;;;;3.44;62.51;102804.38;5070777;28;20063;-75
2021/12/21 12:24:24;;;;;;;0.40;0.40;;;;;;;3.38;62.14;102799.56;5040336;28;20302;-76
2021/12/21 12:27:20;;;;;;;0.47;0.47;;;;;;;3.40;61.38;102792.84;5070579;28;20564;-73
2021/12/21 12:29:49;;;;;;;0.40;0.40;;;;;;;3.47;62.16;102793.41;5043722;28;20040;-75
2021/12/21 12:32:16;;;;;;;0.30;0.30;;;;;;;3.44;62.78;102792.31;5052911;28;20029;-76
2021/12/21 12:34:43;;;;;;;0.33;0.33;;;;;;;3.42;61.15;102788.69;5070506;28;20285;-77
2021/12/21 12:37:23;;;;;;;0.30;0.30;;;;;;;3.42;63.71;102783.50;5070222;28;20025;-79
2021/12/21 12:39:51;;;;;;;0.30;0.30;;;;;;;3.42;62.36;102790.38;5069903;28;20506;-77
2021/12/21 12:42:28;;;;;;;0.40;0.40;;;;;;;3.43;63.58;102789.63;5054762;28;20267;-76
2021/12/21 12:45:16;;;;;;;0.43;0.43;;;;;;;3.42;61.71;102787.78;5049691;28;20271;-77
2021/12/21 12:47:46;;;;;;;0.40;0.40;;;;;;;3.44;60.17;102781.97;5050371;28;20121;-79
2021/12/21 12:50:21;;;;;;;0.40;0.40;;;;;;;3.52;60.08;102781.72;5052715;28;20031;-77